createdAt,value
2022-12-31T00:01:31.494Z,100151.91
2022-12-31T00:04:00.027Z,100162.22
2022-12-31T00:06:31.478Z,100154.34
2022-12-31T00:09:02.307Z,100138.88
2022-12-31T00:11:31.408Z,100135.72
2022-12-31T00:14:00.032Z,100151.44
2022-12-31T00:16:36.702Z,100136.94
2022-12-31T00:19:10.095Z,100140.97
2022-12-31T00:21:38.997Z,100142.59
2022-12-31T00:24:07.954Z,100145.78
2022-12-31T00:26:37.196Z,100149.25
2022-12-31T00:29:06.136Z,100162.25
2022-12-31T00:31:37.476Z,100139.81
2022-12-31T00:34:06.978Z,100125.63
2022-12-31T00:36:38.307Z,100125.53
2022-12-31T00:39:08.397Z,100130.69
2022-12-31T00:41:37.500Z,100122.69
2022-12-31T00:44:06.137Z,100119.44
2022-12-31T00:49:02.907Z,100117.38
2022-12-31T00:51:31.411Z,100125.78
2022-12-31T00:53:59.953Z,100128.47
2022-12-31T00:56:31.169Z,100137.06
2022-12-31T00:59:00.284Z,100125.63
2022-12-31T01:01:32.055Z,100117.31
2022-12-31T01:04:08.270Z,100112.75
2022-12-31T01:06:36.895Z,100113.91
2022-12-31T01:09:06.515Z,100111.94
2022-12-31T01:11:35.463Z,100117.09
2022-12-31T01:14:24.011Z,100118.00
2022-12-31T01:16:53.447Z,100112.28
2022-12-31T01:19:27.640Z,100107.66
2022-12-31T01:21:56.511Z,100114.06
2022-12-31T01:24:25.251Z,100107.41
2022-12-31T01:26:57.741Z,100107.91
2022-12-31T01:29:26.635Z,100115.91
2022-12-31T01:31:55.389Z,100107.09
2022-12-31T01:34:23.865Z,100115.84
2022-12-31T01:36:52.354Z,100125.03
2022-12-31T01:39:20.790Z,100125.59
2022-12-31T01:41:49.789Z,100128.19
2022-12-31T01:44:26.956Z,100116.69
2022-12-31T01:47:04.151Z,100115.88
2022-12-31T01:49:38.865Z,100131.59
2022-12-31T01:52:13.089Z,100141.59
2022-12-31T01:54:47.544Z,100165.56
2022-12-31T01:57:17.263Z,100196.72
2022-12-31T01:59:46.081Z,100162.81
2022-12-31T02:02:15.883Z,100162.00
2022-12-31T02:04:44.603Z,100149.91
2022-12-31T02:07:13.387Z,100145.75
2022-12-31T02:09:42.551Z,100147.47
2022-12-31T02:12:11.621Z,100159.78
2022-12-31T02:14:43.908Z,100146.38
2022-12-31T02:17:31.086Z,100159.97
2022-12-31T02:20:19.352Z,100181.38
2022-12-31T02:23:16.713Z,100176.97
2022-12-31T02:26:30.732Z,100198.84
2022-12-31T02:29:47.037Z,100194.75
2022-12-31T02:32:21.826Z,100184.19
2022-12-31T02:34:56.603Z,100190.06
2022-12-31T02:37:29.969Z,100196.41
2022-12-31T02:39:59.147Z,100207.16
2022-12-31T02:42:27.636Z,100217.94
2022-12-31T02:44:56.140Z,100213.41
2022-12-31T02:47:38.517Z,100209.94
2022-12-31T02:50:55.449Z,100212.13
2022-12-31T02:53:49.755Z,100210.09
2022-12-31T02:56:35.231Z,100203.22
2022-12-31T02:59:30.434Z,100193.72
2022-12-31T03:02:16.557Z,100189.94
2022-12-31T03:04:55.541Z,100191.69
2022-12-31T03:07:29.457Z,100179.97
2022-12-31T03:09:59.087Z,100178.78
2022-12-31T03:12:46.787Z,100179.72
2022-12-31T03:15:22.319Z,100176.50
2022-12-31T03:17:53.649Z,100178.00
2022-12-31T03:21:01.830Z,100181.34
2022-12-31T03:23:32.100Z,100167.16
2022-12-31T03:26:01.712Z,100164.19
2022-12-31T03:28:31.221Z,100167.81
2022-12-31T03:31:01.638Z,100161.53
2022-12-31T03:33:32.299Z,100163.06
2022-12-31T03:36:04.282Z,100154.66
2022-12-31T03:38:32.765Z,100154.38
2022-12-31T03:41:01.433Z,100140.47
2022-12-31T03:43:29.911Z,100128.91
2022-12-31T03:45:59.894Z,100140.47
2022-12-31T03:48:28.557Z,100137.63
2022-12-31T03:50:57.021Z,100134.06
2022-12-31T03:53:25.452Z,100132.69
2022-12-31T03:55:54.264Z,100130.63
2022-12-31T03:58:22.851Z,100135.72
2022-12-31T04:00:51.423Z,100127.22
2022-12-31T04:03:19.964Z,100119.56
2022-12-31T04:05:56.054Z,100128.00
2022-12-31T04:08:24.796Z,100120.59
2022-12-31T04:10:53.318Z,100119.69
2022-12-31T04:13:22.875Z,100106.56
2022-12-31T04:15:52.079Z,100105.28
2022-12-31T04:18:20.615Z,100105.34
2022-12-31T04:20:48.993Z,100094.31
2022-12-31T04:23:17.822Z,100100.63
2022-12-31T04:25:46.428Z,100097.88
2022-12-31T04:28:15.024Z,100108.41
2022-12-31T04:30:43.664Z,100102.03
2022-12-31T04:33:12.375Z,100091.22
2022-12-31T04:35:40.905Z,100094.53
2022-12-31T04:38:09.386Z,100105.53
2022-12-31T04:40:57.865Z,100104.63
2022-12-31T04:43:26.309Z,100094.97
2022-12-31T04:45:54.874Z,100096.97
2022-12-31T04:48:23.394Z,100102.72
2022-12-31T04:50:51.829Z,100111.63
2022-12-31T04:53:20.333Z,100114.31
2022-12-31T04:55:48.828Z,100121.78
2022-12-31T04:58:17.535Z,100127.19
2022-12-31T05:00:49.653Z,100130.56
2022-12-31T05:03:18.894Z,100135.84
2022-12-31T05:05:48.102Z,100141.94
2022-12-31T05:08:18.101Z,100146.81
2022-12-31T05:10:48.956Z,100152.06
2022-12-31T05:13:17.497Z,100133.47
2022-12-31T05:15:47.276Z,100140.28
2022-12-31T05:18:16.031Z,100154.16
2022-12-31T05:20:45.042Z,100155.91
2022-12-31T05:23:14.447Z,100152.09
2022-12-31T05:25:44.850Z,100167.03
2022-12-31T05:28:14.552Z,100162.41
2022-12-31T05:30:44.903Z,100161.72
2022-12-31T05:33:13.419Z,100160.63
2022-12-31T05:35:43.891Z,100169.53
2022-12-31T05:38:12.594Z,100185.09
2022-12-31T05:40:41.068Z,100190.06
2022-12-31T05:43:09.561Z,100181.81
2022-12-31T05:45:37.980Z,100174.38
2022-12-31T05:48:06.591Z,100179.19
2022-12-31T05:50:35.052Z,100176.38
2022-12-31T05:53:03.537Z,100180.13
2022-12-31T05:55:31.944Z,100168.44
2022-12-31T05:58:00.444Z,100165.94
2022-12-31T06:00:28.938Z,100186.28
2022-12-31T06:02:57.544Z,100181.56
2022-12-31T06:05:26.546Z,100184.75
2022-12-31T06:07:55.344Z,100197.75
2022-12-31T06:10:23.733Z,100189.91
2022-12-31T06:12:52.237Z,100208.03
2022-12-31T06:15:20.770Z,100205.56
2022-12-31T06:17:49.367Z,100202.91
2022-12-31T06:20:17.905Z,100213.13
2022-12-31T06:22:46.433Z,100204.59
2022-12-31T06:25:15.048Z,100212.19
2022-12-31T06:27:43.477Z,100216.66
2022-12-31T06:30:12.555Z,100224.69
2022-12-31T06:32:41.072Z,100222.69
2022-12-31T06:35:10.005Z,100232.41
2022-12-31T06:37:38.699Z,100221.72
2022-12-31T06:40:07.920Z,100236.72
2022-12-31T06:42:36.364Z,100221.88
2022-12-31T06:45:05.405Z,100229.19
2022-12-31T06:47:33.902Z,100234.75
2022-12-31T06:50:02.331Z,100223.66
2022-12-31T06:52:30.779Z,100220.19
2022-12-31T06:54:59.769Z,100227.22
2022-12-31T06:57:28.651Z,100224.22
2022-12-31T06:59:57.333Z,100226.53
2022-12-31T07:03:13.595Z,100230.84
2022-12-31T07:05:49.533Z,100220.50
2022-12-31T07:08:39.876Z,100215.91
2022-12-31T07:11:18.400Z,100235.41
2022-12-31T07:14:01.029Z,100236.16
2022-12-31T07:16:43.692Z,100250.69
2022-12-31T07:19:36.512Z,100245.63
2022-12-31T07:22:09.352Z,100245.47
2022-12-31T07:24:38.197Z,100229.06
2022-12-31T07:27:28.545Z,100244.91
2022-12-31T07:29:59.707Z,100246.22
2022-12-31T07:32:56.184Z,100243.28
2022-12-31T07:35:49.319Z,100255.22
2022-12-31T07:38:34.331Z,100253.50
2022-12-31T07:41:26.965Z,100245.81
2022-12-31T07:44:24.835Z,100249.81
2022-12-31T07:46:57.127Z,100249.72
2022-12-31T07:49:27.748Z,100244.91
2022-12-31T07:51:56.608Z,100252.50
2022-12-31T07:54:25.196Z,100249.50
2022-12-31T07:56:53.779Z,100250.09
2022-12-31T07:59:59.101Z,100239.47
2022-12-31T08:02:39.649Z,100242.56
2022-12-31T08:05:46.630Z,100253.53
2022-12-31T08:08:28.120Z,100264.66
2022-12-31T08:11:23.877Z,100257.66
2022-12-31T08:13:56.193Z,100278.16
2022-12-31T08:16:25.065Z,100302.97
2022-12-31T08:18:53.862Z,100278.03
2022-12-31T08:21:44.640Z,100291.84
2022-12-31T08:24:54.979Z,100310.19
2022-12-31T08:28:02.244Z,100335.59
2022-12-31T08:31:13.409Z,100335.59
2022-12-31T08:33:55.132Z,100333.47
2022-12-31T08:36:32.798Z,100336.56
2022-12-31T08:39:31.682Z,100351.72
2022-12-31T08:42:04.838Z,100347.69
2022-12-31T08:44:59.260Z,100357.97
2022-12-31T08:47:39.701Z,100382.44
2022-12-31T08:50:14.765Z,100376.03
2022-12-31T08:52:43.551Z,100375.06
2022-12-31T08:55:17.713Z,100386.38
2022-12-31T08:58:06.725Z,100387.16
2022-12-31T09:00:36.693Z,100390.94
2022-12-31T09:03:34.243Z,100419.06
2022-12-31T09:06:25.359Z,100411.28
2022-12-31T09:09:03.690Z,100414.72
2022-12-31T09:11:57.287Z,100421.81
2022-12-31T09:14:43.908Z,100412.94
2022-12-31T09:17:18.390Z,100432.69
2022-12-31T09:19:47.112Z,100423.72
2022-12-31T09:22:16.835Z,100451.59
2022-12-31T09:24:45.529Z,100447.13
2022-12-31T09:27:25.609Z,100443.56
2022-12-31T09:29:56.181Z,100449.06
2022-12-31T09:32:33.725Z,100440.88
2022-12-31T09:35:41.270Z,100446.47
2022-12-31T09:38:22.616Z,100457.22
2022-12-31T09:41:04.183Z,100492.53
2022-12-31T09:43:35.655Z,100467.94
2022-12-31T09:46:25.919Z,100454.25
2022-12-31T09:49:13.191Z,100483.56
2022-12-31T09:51:49.080Z,100478.13
2022-12-31T09:54:28.946Z,100474.75
2022-12-31T09:57:21.927Z,100472.59
2022-12-31T10:00:11.030Z,100476.66
2022-12-31T10:03:10.553Z,100483.59
2022-12-31T10:05:58.016Z,100476.38
2022-12-31T10:08:48.333Z,100493.38
2022-12-31T10:11:45.024Z,100498.00
2022-12-31T10:14:47.124Z,100500.34
2022-12-31T10:17:42.099Z,100495.06
2022-12-31T10:20:24.250Z,100484.84
2022-12-31T10:23:30.098Z,100488.88
2022-12-31T10:26:16.421Z,100480.38
2022-12-31T10:29:28.655Z,100476.53
2022-12-31T10:32:15.259Z,100469.53
2022-12-31T10:34:53.117Z,100458.75
2022-12-31T10:37:53.442Z,100455.03
2022-12-31T10:40:51.170Z,100458.94
2022-12-31T10:43:58.680Z,100476.59
2022-12-31T10:47:00.566Z,100470.53
2022-12-31T10:49:42.231Z,100484.06
2022-12-31T10:52:58.395Z,100468.06
2022-12-31T10:55:56.503Z,100487.19
2022-12-31T10:58:49.714Z,100490.16
2022-12-31T11:01:30.224Z,100481.06
2022-12-31T11:04:35.609Z,100477.53
2022-12-31T11:07:19.818Z,100485.47
2022-12-31T11:10:00.217Z,100499.31
2022-12-31T11:12:28.649Z,100474.59
2022-12-31T11:15:22.102Z,100501.44
2022-12-31T11:18:23.253Z,100494.22
2022-12-31T11:21:00.541Z,100487.81
2022-12-31T11:23:47.813Z,100500.13
2022-12-31T11:26:36.747Z,100500.63
2022-12-31T11:29:08.341Z,100496.69
2022-12-31T11:31:50.840Z,100509.66
2022-12-31T11:34:22.359Z,100502.03
2022-12-31T11:37:17.889Z,100510.09
2022-12-31T11:39:52.347Z,100509.69
2022-12-31T11:42:40.780Z,100502.34
2022-12-31T11:45:40.790Z,100506.19
2022-12-31T11:48:31.396Z,100514.09
2022-12-31T11:51:12.551Z,100496.44
2022-12-31T11:54:03.727Z,100502.63
2022-12-31T11:56:38.532Z,100508.41
2022-12-31T11:59:18.990Z,100506.56
2022-12-31T12:02:16.315Z,100502.63
2022-12-31T12:04:48.327Z,100522.50
2022-12-31T12:07:17.571Z,100503.81
2022-12-31T12:09:46.284Z,100507.03
2022-12-31T12:12:15.603Z,100520.72
2022-12-31T12:14:46.988Z,100521.22
2022-12-31T12:17:22.012Z,100508.56
2022-12-31T12:19:55.019Z,100507.63
2022-12-31T12:22:25.465Z,100510.06
2022-12-31T12:25:04.790Z,100499.78
2022-12-31T12:27:36.382Z,100504.41
2022-12-31T12:30:17.842Z,100524.06
2022-12-31T12:32:59.608Z,100499.47
2022-12-31T12:35:33.854Z,100500.09
2022-12-31T12:38:04.411Z,100506.53
2022-12-31T12:40:34.717Z,100493.03
2022-12-31T12:43:03.640Z,100496.47
2022-12-31T12:45:51.878Z,100491.72
2022-12-31T12:48:34.214Z,100477.81
2022-12-31T12:51:16.466Z,100480.38
2022-12-31T12:53:44.962Z,100467.22
2022-12-31T12:56:22.826Z,100472.19
2022-12-31T12:59:17.343Z,100497.75
2022-12-31T13:02:17.671Z,100478.25
2022-12-31T13:05:11.490Z,100489.72
2022-12-31T13:07:48.881Z,100494.56
2022-12-31T13:10:41.584Z,100480.94
2022-12-31T13:13:26.204Z,100492.59
2022-12-31T13:16:07.178Z,100487.19
2022-12-31T13:19:06.652Z,100493.75
2022-12-31T13:21:44.450Z,100503.69
2022-12-31T13:24:51.144Z,100490.53
2022-12-31T13:27:37.503Z,100496.00
2022-12-31T13:30:21.665Z,100502.72
2022-12-31T13:33:00.325Z,100507.81
2022-12-31T13:35:57.964Z,100499.06
2022-12-31T13:38:34.659Z,100486.88
2022-12-31T13:41:05.708Z,100499.91
2022-12-31T13:44:04.994Z,100485.59
2022-12-31T13:47:06.115Z,100496.59
2022-12-31T13:49:44.391Z,100507.00
2022-12-31T13:52:30.701Z,100489.13
2022-12-31T13:55:40.018Z,100485.00
2022-12-31T13:58:31.425Z,100469.00
2022-12-31T14:01:22.229Z,100489.84
2022-12-31T14:03:57.900Z,100491.38
2022-12-31T14:06:49.314Z,100503.00
2022-12-31T14:09:23.180Z,100513.63
2022-12-31T14:12:13.673Z,100498.38
2022-12-31T14:14:51.313Z,100510.47
2022-12-31T14:17:45.417Z,100514.22
2022-12-31T14:20:22.887Z,100494.56
2022-12-31T14:23:11.071Z,100496.22
2022-12-31T14:26:07.598Z,100495.44
2022-12-31T14:28:47.020Z,100502.03
2022-12-31T14:31:51.795Z,100513.75
2022-12-31T14:34:47.510Z,100512.13
2022-12-31T14:37:33.509Z,100518.97
2022-12-31T14:40:26.950Z,100520.03
2022-12-31T14:43:14.354Z,100528.31
2022-12-31T14:46:04.185Z,100533.28
2022-12-31T14:48:56.335Z,100524.16
2022-12-31T14:51:30.881Z,100531.72
2022-12-31T14:53:59.436Z,100522.41
2022-12-31T14:56:42.505Z,100516.94
2022-12-31T14:59:35.687Z,100516.94
2022-12-31T15:02:26.662Z,100541.72
2022-12-31T15:05:29.263Z,100542.00
2022-12-31T15:08:24.852Z,100546.78
2022-12-31T15:11:19.216Z,100537.69
2022-12-31T15:14:09.296Z,100550.91
2022-12-31T15:17:12.447Z,100537.91
2022-12-31T15:19:43.579Z,100532.78
2022-12-31T15:22:52.242Z,100530.19
2022-12-31T15:25:40.102Z,100532.09
2022-12-31T15:28:32.069Z,100523.19
2022-12-31T15:31:17.479Z,100533.34
2022-12-31T15:33:58.303Z,100535.41
2022-12-31T15:36:31.817Z,100532.47
2022-12-31T15:39:25.469Z,100528.81
2022-12-31T15:44:54.967Z,100532.03
2022-12-31T15:47:41.534Z,100532.69
2022-12-31T15:50:18.832Z,100528.91
2022-12-31T15:52:53.933Z,100529.59
2022-12-31T15:55:41.554Z,100534.13
2022-12-31T15:58:23.856Z,100530.41
2022-12-31T16:00:55.222Z,100535.50
2022-12-31T16:03:26.848Z,100522.56
2022-12-31T16:06:00.954Z,100524.50
2022-12-31T16:08:33.920Z,100528.31
2022-12-31T16:11:07.362Z,100535.28
2022-12-31T16:13:40.821Z,100540.13
2022-12-31T16:16:24.313Z,100534.72
2022-12-31T16:18:53.413Z,100528.47
2022-12-31T16:21:27.027Z,100513.72
2022-12-31T16:23:58.027Z,100522.72
2022-12-31T16:26:42.284Z,100519.34
2022-12-31T16:29:16.134Z,100518.22
2022-12-31T16:31:46.628Z,100510.72
2022-12-31T16:34:17.750Z,100512.91
2022-12-31T16:37:01.084Z,100513.78
2022-12-31T16:39:59.358Z,100503.94
2022-12-31T16:42:28.669Z,100509.50
2022-12-31T16:44:57.512Z,100500.13
2022-12-31T16:47:35.937Z,100495.72
2022-12-31T16:50:15.609Z,100504.13
2022-12-31T16:52:47.061Z,100514.53
2022-12-31T16:55:19.212Z,100506.66
2022-12-31T16:57:55.672Z,100507.38
2022-12-31T17:00:25.384Z,100504.78
2022-12-31T17:03:02.586Z,100511.25
2022-12-31T17:05:32.510Z,100506.53
2022-12-31T17:08:27.035Z,100511.81
2022-12-31T17:10:56.507Z,100513.06
2022-12-31T17:13:31.934Z,100512.88
2022-12-31T17:16:01.187Z,100520.38
2022-12-31T17:18:38.516Z,100524.63
2022-12-31T17:21:09.912Z,100525.19
2022-12-31T17:23:42.425Z,100524.59
2022-12-31T17:26:21.999Z,100529.00
2022-12-31T17:28:53.521Z,100522.88
2022-12-31T17:31:38.217Z,100512.53
2022-12-31T17:34:12.881Z,100510.84
2022-12-31T17:36:54.397Z,100499.69
2022-12-31T17:39:25.460Z,100503.88
2022-12-31T17:41:57.810Z,100502.66
2022-12-31T17:44:28.816Z,100501.41
2022-12-31T17:46:57.940Z,100497.16
2022-12-31T17:49:30.904Z,100503.06
2022-12-31T17:51:59.407Z,100498.50
2022-12-31T17:54:27.917Z,100496.06
2022-12-31T17:56:57.615Z,100496.03
2022-12-31T17:59:29.758Z,100493.41
2022-12-31T18:02:01.148Z,100510.69
2022-12-31T18:04:30.753Z,100514.25
2022-12-31T18:06:59.178Z,100508.22
2022-12-31T18:09:27.650Z,100519.09
2022-12-31T18:12:01.363Z,100513.44
2022-12-31T18:14:30.208Z,100510.38
2022-12-31T18:16:58.736Z,100507.53
2022-12-31T18:22:16.211Z,100519.59
2022-12-31T18:24:44.766Z,100502.84
2022-12-31T18:27:18.487Z,100504.03
2022-12-31T18:29:47.357Z,100504.34
2022-12-31T18:32:37.399Z,100510.09
2022-12-31T18:35:26.717Z,100505.25
2022-12-31T18:38:03.443Z,100504.06
2022-12-31T18:40:32.964Z,100504.81
2022-12-31T18:43:05.134Z,100503.91
2022-12-31T18:45:33.962Z,100499.38
2022-12-31T18:48:02.644Z,100503.53
2022-12-31T18:50:31.275Z,100517.50
2022-12-31T18:52:59.775Z,100517.13
2022-12-31T18:55:36.235Z,100520.25
2022-12-31T18:58:05.328Z,100521.66
2022-12-31T19:00:35.645Z,100526.28
2022-12-31T19:03:05.577Z,100514.63
2022-12-31T19:05:37.508Z,100539.38
2022-12-31T19:08:05.976Z,100540.28
2022-12-31T19:10:34.982Z,100539.84
2022-12-31T19:13:03.763Z,100548.59
2022-12-31T19:15:53.205Z,100554.03
2022-12-31T19:18:21.756Z,100546.16
2022-12-31T19:20:51.759Z,100547.59
2022-12-31T19:23:22.354Z,100547.31
2022-12-31T19:25:50.983Z,100549.47
2022-12-31T19:28:23.118Z,100550.34
2022-12-31T19:30:52.987Z,100563.00
2022-12-31T19:33:21.558Z,100570.81
2022-12-31T19:35:50.110Z,100560.22
2022-12-31T19:38:26.889Z,100568.00
2022-12-31T19:40:56.312Z,100566.81
2022-12-31T19:43:26.022Z,100578.78
2022-12-31T19:45:54.476Z,100570.81
2022-12-31T19:48:32.328Z,100574.19
2022-12-31T19:51:01.151Z,100584.41
2022-12-31T19:53:29.728Z,100581.63
2022-12-31T19:55:58.238Z,100583.63
2022-12-31T19:58:27.649Z,100594.53
2022-12-31T20:01:02.650Z,100596.31
2022-12-31T20:03:33.160Z,100600.94
2022-12-31T20:06:09.924Z,100594.16
2022-12-31T20:08:39.875Z,100598.59
2022-12-31T20:11:14.053Z,100606.91
2022-12-31T20:13:43.641Z,100610.91
2022-12-31T20:16:15.252Z,100600.75
2022-12-31T20:18:45.719Z,100586.88
2022-12-31T20:21:19.256Z,100606.47
2022-12-31T20:23:49.632Z,100594.72
2022-12-31T20:26:20.307Z,100593.44
2022-12-31T20:28:49.068Z,100605.09
2022-12-31T20:31:20.777Z,100614.22
2022-12-31T20:33:49.521Z,100598.53
2022-12-31T20:36:18.132Z,100598.94
2022-12-31T20:38:47.088Z,100601.06
2022-12-31T20:41:20.847Z,100618.78
2022-12-31T20:43:50.887Z,100613.41
2022-12-31T20:46:25.577Z,100600.94
2022-12-31T20:48:56.106Z,100605.91
2022-12-31T20:51:26.163Z,100609.19
2022-12-31T20:54:00.238Z,100609.63
2022-12-31T20:56:31.115Z,100621.22
2022-12-31T20:59:00.340Z,100629.19
2022-12-31T21:01:41.740Z,100636.00
2022-12-31T21:04:19.145Z,100616.47
2022-12-31T21:06:49.814Z,100620.41
2022-12-31T21:09:18.321Z,100612.16
2022-12-31T21:12:05.151Z,100635.72
2022-12-31T21:14:33.774Z,100615.22
2022-12-31T21:17:02.302Z,100623.03
2022-12-31T21:19:30.879Z,100627.34
2022-12-31T21:21:59.440Z,100632.59
2022-12-31T21:24:27.845Z,100624.84
2022-12-31T21:26:56.381Z,100620.28
2022-12-31T21:29:25.695Z,100615.53
2022-12-31T21:31:55.324Z,100618.91
2022-12-31T21:34:23.796Z,100622.22
2022-12-31T21:36:52.219Z,100628.81
2022-12-31T21:39:20.763Z,100609.84
2022-12-31T21:41:52.212Z,100620.00
2022-12-31T21:44:25.895Z,100609.06
2022-12-31T21:47:39.805Z,100628.94
2022-12-31T21:50:09.882Z,100641.25
2022-12-31T21:52:39.407Z,100649.50
2022-12-31T21:55:26.854Z,100639.84
2022-12-31T22:01:03.395Z,100638.97
2022-12-31T22:03:32.235Z,100656.59
2022-12-31T22:06:12.378Z,100637.28
2022-12-31T22:08:42.834Z,100649.41
2022-12-31T22:11:12.673Z,100654.19
2022-12-31T22:13:41.458Z,100658.84
2022-12-31T22:16:10.482Z,100652.06
2022-12-31T22:18:40.736Z,100656.63
2022-12-31T22:21:18.390Z,100663.31
2022-12-31T22:23:49.879Z,100658.63
2022-12-31T22:26:20.417Z,100660.25
2022-12-31T22:28:49.940Z,100662.63
2022-12-31T22:31:24.450Z,100662.34
2022-12-31T22:33:53.541Z,100652.41
2022-12-31T22:36:23.542Z,100661.13
2022-12-31T22:38:55.859Z,100666.25
2022-12-31T22:41:26.038Z,100669.75
2022-12-31T22:44:03.189Z,100672.13
2022-12-31T22:46:33.561Z,100661.75
2022-12-31T22:49:04.132Z,100667.69
2022-12-31T22:51:56.959Z,100676.53
2022-12-31T22:54:21.453Z,100691.75
2022-12-31T22:56:49.859Z,100676.09
2022-12-31T22:59:19.294Z,100697.00
2022-12-31T23:01:47.857Z,100697.19
2022-12-31T23:04:16.670Z,100703.44
2022-12-31T23:06:45.255Z,100705.78
2022-12-31T23:09:33.887Z,100686.97
2022-12-31T23:12:04.157Z,100692.63
2022-12-31T23:14:51.490Z,100698.78
2022-12-31T23:17:42.518Z,100689.97
2022-12-31T23:20:39.566Z,100703.50
2022-12-31T23:23:12.523Z,100700.41
2022-12-31T23:25:45.742Z,100698.06
2022-12-31T23:28:18.816Z,100717.03
2022-12-31T23:30:47.423Z,100713.06
2022-12-31T23:33:21.027Z,100715.34
2022-12-31T23:35:49.638Z,100700.56
2022-12-31T23:38:18.716Z,100691.34
2022-12-31T23:40:47.350Z,100720.13
2022-12-31T23:43:21.451Z,100707.81
2022-12-31T23:45:50.962Z,100700.56
2022-12-31T23:48:20.014Z,100692.78
2022-12-31T23:50:53.607Z,100704.22
2022-12-31T23:53:24.013Z,100710.00
2022-12-31T23:55:53.152Z,100712.63
2022-12-31T23:58:22.406Z,100709.63
